createdAt,value
2022-08-28T07:01:08.356Z,80.29
2022-08-28T07:04:17.908Z,80.08
2022-08-28T07:07:32.636Z,78.90
2022-08-28T07:10:42.359Z,77.55
2022-08-28T07:13:53.282Z,77.94
2022-08-28T07:17:04.058Z,77.19
2022-08-28T07:20:14.524Z,76.22
2022-08-28T07:23:24.589Z,75.61
2022-08-28T07:26:35.599Z,74.74
2022-08-28T07:29:45.358Z,75.39
2022-08-28T07:32:56.311Z,73.49
2022-08-28T07:36:07.969Z,73.37
2022-08-28T07:39:25.308Z,73.60
2022-08-28T07:42:45.850Z,72.70
2022-08-28T07:45:59.580Z,72.21
2022-08-28T07:49:11.163Z,70.69
2022-08-28T07:52:20.658Z,69.99
2022-08-28T07:55:31.618Z,69.61
2022-08-28T07:58:41.209Z,68.67
2022-08-28T08:01:52.293Z,69.31
2022-08-28T08:05:03.186Z,69.32
2022-08-28T08:08:12.914Z,69.07
2022-08-28T08:11:22.480Z,68.32
2022-08-28T08:14:33.501Z,68.42
2022-08-28T08:17:45.017Z,67.72
2022-08-28T08:20:55.777Z,67.73
2022-08-28T08:24:05.544Z,66.45
2022-08-28T08:27:15.170Z,64.89
2022-08-28T08:30:25.062Z,64.58
2022-08-28T08:33:35.189Z,63.86
2022-08-28T08:36:45.941Z,64.47
2022-08-28T08:39:55.524Z,63.69
2022-08-28T08:43:05.231Z,64.43
2022-08-28T08:46:14.849Z,63.76
2022-08-28T08:49:30.534Z,62.36
2022-08-28T08:52:52.800Z,62.26
2022-08-28T08:56:05.488Z,61.79
2022-08-28T08:59:18.496Z,59.89
2022-08-28T09:02:34.564Z,58.69
2022-08-28T09:05:50.014Z,57.21
2022-08-28T09:09:06.900Z,57.80
2022-08-28T09:12:21.196Z,55.89
2022-08-28T09:15:34.009Z,55.17
2022-08-28T09:18:43.995Z,55.98
2022-08-28T09:21:54.105Z,57.09
2022-08-28T09:25:05.418Z,58.61
2022-08-28T09:28:18.377Z,59.74
2022-08-28T09:31:32.582Z,60.20
2022-08-28T09:35:00.467Z,60.24
2022-08-28T09:38:18.825Z,59.78
2022-08-28T09:41:40.707Z,59.35
2022-08-28T09:44:54.060Z,59.28
2022-08-28T09:48:09.550Z,58.67
2022-08-28T09:51:29.673Z,58.34
2022-08-28T09:54:44.567Z,58.20
2022-08-28T09:57:55.620Z,57.43
2022-08-28T10:01:21.194Z,58.15
2022-08-28T10:04:42.164Z,57.54
2022-08-28T10:07:56.582Z,57.29
2022-08-28T10:11:17.306Z,57.39
2022-08-28T10:14:42.783Z,57.14
2022-08-28T10:18:10.231Z,56.01
2022-08-28T10:21:25.214Z,55.03
2022-08-28T10:24:52.904Z,53.93
2022-08-28T10:28:18.740Z,51.97
2022-08-28T10:31:40.423Z,52.32
2022-08-28T10:35:01.662Z,51.65
2022-08-28T10:38:16.056Z,52.05
2022-08-28T10:41:30.842Z,53.18
2022-08-28T10:44:50.403Z,53.70
2022-08-28T10:48:05.742Z,54.40
2022-08-28T10:51:20.932Z,54.59
2022-08-28T10:54:52.075Z,53.71
2022-08-28T10:58:04.922Z,51.88
2022-08-28T11:01:34.498Z,49.87
2022-08-28T11:04:47.734Z,49.26
2022-08-28T11:07:59.710Z,47.82
2022-08-28T11:11:14.866Z,46.04
2022-08-28T11:14:28.296Z,46.07
2022-08-28T11:17:41.690Z,47.35
2022-08-28T11:21:10.854Z,47.33
2022-08-28T11:24:32.085Z,46.89
2022-08-28T11:28:13.433Z,46.18
2022-08-28T11:31:33.028Z,46.17
2022-08-28T11:34:58.553Z,47.88
2022-08-28T11:38:10.134Z,48.04
2022-08-28T11:41:22.639Z,46.22
2022-08-28T11:44:42.558Z,45.89
2022-08-28T11:47:56.645Z,45.60
2022-08-28T11:51:13.578Z,46.31
2022-08-28T11:54:40.278Z,45.23
2022-08-28T12:01:28.309Z,44.57
2022-08-28T12:04:43.385Z,43.56
2022-08-28T12:07:53.350Z,42.43
2022-08-28T12:11:05.675Z,41.56
2022-08-28T12:14:51.918Z,41.14
2022-08-28T12:18:03.819Z,40.50
2022-08-28T12:21:18.091Z,41.81
2022-08-28T12:24:28.647Z,45.15
2022-08-28T12:27:41.042Z,46.64
2022-08-28T12:31:00.467Z,46.04
2022-08-28T12:34:19.498Z,47.59
2022-08-28T12:37:39.387Z,48.17
2022-08-28T12:41:03.292Z,47.95
2022-08-28T12:44:15.437Z,48.36
2022-08-28T12:47:25.614Z,46.53
2022-08-28T12:50:37.391Z,44.50
2022-08-28T12:53:52.601Z,43.13
2022-08-28T12:57:05.832Z,44.34
2022-08-28T13:00:23.302Z,45.02
2022-08-28T13:03:34.154Z,45.63
2022-08-28T13:06:43.835Z,44.61
2022-08-28T13:09:55.926Z,45.98
2022-08-28T13:13:11.821Z,46.52
2022-08-28T13:16:36.980Z,46.48
2022-08-28T13:19:46.549Z,46.92
2022-08-28T13:22:56.464Z,45.62
2022-08-28T13:26:07.055Z,46.83
2022-08-28T13:29:20.393Z,47.23
2022-08-28T13:32:33.643Z,46.85
2022-08-28T13:35:43.542Z,46.88
2022-08-28T13:38:53.014Z,47.25
2022-08-28T13:42:08.134Z,46.94
2022-08-28T13:45:17.759Z,46.50
2022-08-28T13:48:28.770Z,45.98
2022-08-28T13:51:39.633Z,45.96
2022-08-28T13:54:50.890Z,46.50
2022-08-28T13:58:00.439Z,45.96
2022-08-28T14:01:11.402Z,46.46
2022-08-28T14:04:21.592Z,46.06
2022-08-28T14:07:31.527Z,45.81
2022-08-28T14:10:41.176Z,46.73
2022-08-28T14:13:55.751Z,46.87
2022-08-28T14:17:09.624Z,47.51
2022-08-28T14:20:20.541Z,47.07
2022-08-28T14:23:30.085Z,47.07
2022-08-28T14:26:40.398Z,47.78
2022-08-28T14:29:49.962Z,48.02
2022-08-28T14:32:59.431Z,47.12
2022-08-28T14:36:15.649Z,48.93
2022-08-28T14:39:27.325Z,47.92
2022-08-28T14:42:37.097Z,47.53
2022-08-28T14:45:49.083Z,47.45
2022-08-28T14:49:00.764Z,47.15
2022-08-28T14:52:12.051Z,47.41
2022-08-28T14:55:21.586Z,47.27
2022-08-28T14:58:32.309Z,45.88
2022-08-28T15:01:42.821Z,46.87
2022-08-28T15:04:52.354Z,46.76
2022-08-28T15:08:04.025Z,46.25
2022-08-28T15:11:18.611Z,46.49
2022-08-28T15:14:28.597Z,46.90
2022-08-28T15:17:38.205Z,46.39
2022-08-28T15:20:48.010Z,46.51
2022-08-28T15:24:00.092Z,47.07
2022-08-28T15:27:09.633Z,47.04
2022-08-28T15:30:21.243Z,46.28
2022-08-28T15:33:30.771Z,47.16
2022-08-28T15:36:41.076Z,46.73
2022-08-28T15:40:02.903Z,46.07
2022-08-28T15:43:12.707Z,46.75
2022-08-28T15:46:22.648Z,46.69
2022-08-28T15:49:38.824Z,46.06
2022-08-28T15:52:53.429Z,46.45
2022-08-28T15:56:04.698Z,46.37
2022-08-28T15:59:14.763Z,46.64
2022-08-28T16:02:25.850Z,47.07
2022-08-28T16:05:39.604Z,47.23
2022-08-28T16:08:51.097Z,46.46
2022-08-28T16:12:01.896Z,45.36
2022-08-28T16:15:12.947Z,44.08
2022-08-28T16:18:23.147Z,43.61
2022-08-28T16:21:33.171Z,43.86
2022-08-28T16:24:43.211Z,43.47
2022-08-28T16:27:54.292Z,43.04
2022-08-28T16:31:04.442Z,43.92
2022-08-28T16:35:56.851Z,44.11
2022-08-28T16:37:46.433Z,45.34
2022-08-28T16:40:56.038Z,44.93
2022-08-28T16:44:06.805Z,45.51
2022-08-28T16:47:16.788Z,45.62
2022-08-28T16:50:31.665Z,44.79
2022-08-28T16:53:42.599Z,44.98
2022-08-28T16:56:52.331Z,45.16
2022-08-28T17:00:05.721Z,46.25
2022-08-28T17:03:15.788Z,46.20
2022-08-28T17:06:28.248Z,47.39
2022-08-28T17:09:38.035Z,47.89
2022-08-28T17:12:47.554Z,47.84
2022-08-28T17:15:58.445Z,46.89
2022-08-28T17:19:08.025Z,47.71
2022-08-28T17:22:28.558Z,47.77
2022-08-28T17:25:38.226Z,49.12
2022-08-28T17:28:48.132Z,49.28
2022-08-28T17:31:59.141Z,49.34
2022-08-28T17:35:09.049Z,51.36
2022-08-28T17:38:18.563Z,51.73
2022-08-28T17:41:28.253Z,53.19
2022-08-28T17:44:37.727Z,53.89
2022-08-28T17:47:48.714Z,54.82
2022-08-28T17:50:59.639Z,55.17
2022-08-28T17:54:09.152Z,54.83
2022-08-28T17:57:18.650Z,55.82
2022-08-28T18:00:28.188Z,55.57
2022-08-28T18:03:53.307Z,56.21
2022-08-28T18:07:03.150Z,57.19
2022-08-28T18:10:13.024Z,57.42
2022-08-28T18:13:22.572Z,58.61
2022-08-28T18:16:32.450Z,59.12
2022-08-28T18:19:43.813Z,59.87
2022-08-28T18:22:53.487Z,59.75
2022-08-28T18:26:03.233Z,60.20
2022-08-28T18:29:12.944Z,60.68
2022-08-28T18:32:22.437Z,61.99
2022-08-28T18:35:33.725Z,62.00
2022-08-28T18:38:45.095Z,61.27
2022-08-28T18:41:54.869Z,62.01
2022-08-28T18:45:04.592Z,62.24
2022-08-28T18:48:14.295Z,62.08
2022-08-28T18:51:26.095Z,63.05
2022-08-28T18:54:35.577Z,63.89
2022-08-28T18:57:45.279Z,64.44
2022-08-28T19:00:56.333Z,64.65
2022-08-28T19:04:06.425Z,64.87
2022-08-28T19:07:17.499Z,65.08
2022-08-28T19:10:33.808Z,66.15
2022-08-28T19:13:45.125Z,66.37
2022-08-28T19:16:55.424Z,67.11
2022-08-28T19:20:07.479Z,66.35
2022-08-28T19:23:18.223Z,66.61
2022-08-28T19:26:28.502Z,66.97
2022-08-28T19:29:38.609Z,67.60
2022-08-28T19:32:49.078Z,68.98
2022-08-28T19:35:58.858Z,69.30
2022-08-28T19:39:09.703Z,69.05
2022-08-28T19:42:19.516Z,69.54
2022-08-28T19:45:30.034Z,69.12
2022-08-28T19:48:40.129Z,70.01
2022-08-28T19:51:50.056Z,70.49
2022-08-28T19:55:00.774Z,70.55
2022-08-28T19:58:10.766Z,70.40
2022-08-28T20:01:20.612Z,70.28
2022-08-28T20:04:30.250Z,70.16
2022-08-28T20:07:39.797Z,69.30
2022-08-28T20:10:51.916Z,69.51
2022-08-28T20:14:04.900Z,69.91
2022-08-28T20:17:15.076Z,70.21
2022-08-28T20:20:29.346Z,71.00
